Time;durP1;ratioP1;P1;durP2;ratioP2;P2;SDS_P1;SDS_P2;PMS_P1;PMS_P2;Temp;Humidity;BMP_temperature;BMP_pressure;BME280_temperature;BME280_humidity;BME280_pressure;Samples;Min_cycle;Max_cycle;Signal;HPM_P1;HPM_P2
2021/12/31 00:02:22;;;;;;;;;;;18.60;56.20;;;;;;5025435;28;43000;-75
2021/12/31 00:04:49;;;;;;;;;;;18.60;56.00;;;;;;5026670;28;43438;-76
2021/12/31 00:07:15;;;;;;;;;;;18.60;56.20;;;;;;5034881;28;42934;-75
2021/12/31 00:09:41;;;;;;;;;;;18.60;56.10;;;;;;5042648;28;42889;-75
2021/12/31 00:12:10;;;;;;;;;;;18.60;56.20;;;;;;5046844;28;42919;-78
2021/12/31 00:14:36;;;;;;;;;;;18.60;56.70;;;;;;5046194;28;42953;-78
2021/12/31 00:17:01;;;;;;;;;;;18.60;56.30;;;;;;5046151;28;43037;-75
2021/12/31 00:19:30;;;;;;;;;;;18.60;56.20;;;;;;5038512;28;43479;-75
2021/12/31 00:21:56;;;;;;;;;;;18.60;56.30;;;;;;5066535;28;43037;-75
2021/12/31 00:24:25;;;;;;;;;;;18.60;56.30;;;;;;5046594;28;43532;-76
2021/12/31 00:26:50;;;;;;;;;;;18.60;56.40;;;;;;5065528;28;42916;-75
2021/12/31 00:29:16;;;;;;;;;;;18.60;56.30;;;;;;5065968;28;43011;-76
2021/12/31 00:31:41;;;;;;;;;;;18.60;56.40;;;;;;5067239;28;43320;-76
2021/12/31 00:34:07;;;;;;;;;;;18.60;56.50;;;;;;5066483;28;44151;-77
2021/12/31 00:36:39;;;;;;;;;;;18.60;56.40;;;;;;5067102;28;42939;-77
2021/12/31 00:39:04;;;;;;;;;;;18.60;56.40;;;;;;5067091;28;43454;-78
2021/12/31 00:41:30;;;;;;;;;;;18.60;56.50;;;;;;5066443;28;42914;-76
2021/12/31 00:43:55;;;;;;;;;;;18.60;56.50;;;;;;5066164;28;43454;-76
2021/12/31 00:46:21;;;;;;;;;;;18.60;56.50;;;;;;5066163;28;43750;-76
2021/12/31 00:48:46;;;;;;;;;;;18.60;56.60;;;;;;5067348;28;43003;-76
2021/12/31 00:51:12;;;;;;;;;;;18.60;56.60;;;;;;5068465;28;42880;-76
2021/12/31 00:53:37;;;;;;;;;;;18.50;57.00;;;;;;5067407;28;43566;-77
2021/12/31 00:56:03;;;;;;;;;;;18.60;56.60;;;;;;5066058;28;42995;-77
2021/12/31 00:58:28;;;;;;;;;;;18.50;56.60;;;;;;5065794;28;42991;-76
2021/12/31 01:00:54;;;;;;;;;;;18.50;56.70;;;;;;5066265;28;43026;-76
2021/12/31 01:03:19;;;;;;;;;;;18.50;56.70;;;;;;5065838;28;43303;-75
2021/12/31 01:05:45;;;;;;;;;;;18.50;56.80;;;;;;5066080;28;42974;-75
2021/12/31 01:08:10;;;;;;;;;;;18.60;56.80;;;;;;5065426;28;42861;-76
2021/12/31 01:10:36;;;;;;;;;;;18.60;57.00;;;;;;5065813;28;42835;-75
2021/12/31 01:13:08;;;;;;;;;;;18.50;57.10;;;;;;5066276;28;42833;-75
2021/12/31 01:15:40;;;;;;;;;;;18.50;57.10;;;;;;5066215;28;42911;-76
2021/12/31 01:20:31;;;;;;;;;;;18.50;57.30;;;;;;5066096;28;42952;-77
2021/12/31 01:22:57;;;;;;;;;;;18.50;57.40;;;;;;5065882;28;43464;-76
2021/12/31 01:25:23;;;;;;;;;;;18.50;57.40;;;;;;5065756;28;42987;-75
2021/12/31 01:27:48;;;;;;;;;;;18.50;57.60;;;;;;5065951;28;43812;-76
2021/12/31 01:30:14;;;;;;;;;;;18.60;57.60;;;;;;5065717;28;43014;-75
2021/12/31 01:32:40;;;;;;;;;;;18.60;57.80;;;;;;5065980;28;42977;-75
2021/12/31 01:35:06;;;;;;;;;;;18.50;57.80;;;;;;5066131;28;42896;-77
2021/12/31 01:37:32;;;;;;;;;;;18.50;57.80;;;;;;5065784;28;42852;-76
2021/12/31 01:39:58;;;;;;;;;;;18.60;57.90;;;;;;5046014;28;42971;-76
2021/12/31 01:42:30;;;;;;;;;;;18.60;57.90;;;;;;5064912;28;42915;-76
2021/12/31 01:44:59;;;;;;;;;;;18.50;57.90;;;;;;5065683;28;42901;-76
2021/12/31 01:47:34;;;;;;;;;;;18.50;57.80;;;;;;5065775;28;42710;-75
2021/12/31 01:50:05;;;;;;;;;;;18.50;57.80;;;;;;5065428;28;42935;-76
2021/12/31 01:52:30;;;;;;;;;;;18.50;57.80;;;;;;5050916;28;44759;-74
2021/12/31 01:54:56;;;;;;;;;;;18.50;57.80;;;;;;5030386;28;42769;-76
2021/12/31 01:57:22;;;;;;;;;;;18.50;57.90;;;;;;5040451;28;43546;-75
2021/12/31 01:59:47;;;;;;;;;;;18.50;57.90;;;;;;5032674;28;43059;-75
2021/12/31 02:02:13;;;;;;;;;;;18.50;57.90;;;;;;5034971;28;42989;-75
2021/12/31 02:04:39;;;;;;;;;;;18.50;58.00;;;;;;5042749;28;43688;-75
2021/12/31 02:07:05;;;;;;;;;;;18.50;58.00;;;;;;5026611;28;43569;-75
2021/12/31 02:09:36;;;;;;;;;;;18.50;58.00;;;;;;5040234;28;43013;-75
2021/12/31 02:12:02;;;;;;;;;;;18.50;58.40;;;;;;5023759;28;43473;-75
2021/12/31 02:14:28;;;;;;;;;;;18.50;58.30;;;;;;5028357;28;42951;-75
2021/12/31 02:16:53;;;;;;;;;;;18.50;58.70;;;;;;5036773;28;43632;-75
2021/12/31 02:19:27;;;;;;;;;;;18.50;58.40;;;;;;5033832;28;42993;-74
2021/12/31 02:21:53;;;;;;;;;;;18.50;58.50;;;;;;5044959;28;43009;-75
2021/12/31 02:24:19;;;;;;;;;;;18.50;58.60;;;;;;5063668;28;42818;-75
2021/12/31 02:26:45;;;;;;;;;;;18.50;58.70;;;;;;5044421;28;42890;-75
2021/12/31 02:29:10;;;;;;;;;;;18.50;58.60;;;;;;5026624;28;42912;-75
2021/12/31 02:31:36;;;;;;;;;;;18.50;58.70;;;;;;5042561;28;43645;-75
2021/12/31 02:34:01;;;;;;;;;;;18.50;58.80;;;;;;5025507;28;42819;-75
2021/12/31 02:36:27;;;;;;;;;;;18.50;58.60;;;;;;5026762;28;43558;-75
2021/12/31 02:38:53;;;;;;;;;;;18.50;58.60;;;;;;5035048;28;43069;-75
2021/12/31 02:41:18;;;;;;;;;;;18.50;58.80;;;;;;5025579;28;43128;-74
2021/12/31 02:43:44;;;;;;;;;;;18.50;58.70;;;;;;5026402;28;43076;-75
2021/12/31 02:46:09;;;;;;;;;;;18.50;58.90;;;;;;5029589;28;43623;-75
2021/12/31 02:48:35;;;;;;;;;;;18.50;59.00;;;;;;5026636;28;43044;-76
2021/12/31 02:51:01;;;;;;;;;;;18.50;58.90;;;;;;5039412;28;43381;-77
2021/12/31 02:53:46;;;;;;;;;;;18.50;59.00;;;;;;5029234;28;42960;-75
2021/12/31 02:56:12;;;;;;;;;;;18.50;59.00;;;;;;5032601;28;43009;-75
2021/12/31 02:58:39;;;;;;;;;;;18.50;59.00;;;;;;5047798;28;43054;-75
2021/12/31 03:01:05;;;;;;;;;;;18.50;59.10;;;;;;5037220;28;44522;-75
2021/12/31 03:03:32;;;;;;;;;;;18.50;59.10;;;;;;5043583;28;42914;-76
2021/12/31 03:05:58;;;;;;;;;;;18.50;59.40;;;;;;5034263;28;42969;-76
2021/12/31 03:08:25;;;;;;;;;;;18.50;59.20;;;;;;5045460;28;43057;-75
2021/12/31 03:10:52;;;;;;;;;;;18.50;59.40;;;;;;5031932;28;42980;-75
2021/12/31 03:13:17;;;;;;;;;;;18.50;59.30;;;;;;5045694;28;42934;-75
2021/12/31 03:15:43;;;;;;;;;;;18.50;59.40;;;;;;5033486;28;43615;-75
2021/12/31 03:18:10;;;;;;;;;;;18.50;59.30;;;;;;5046823;28;42819;-75
2021/12/31 03:20:37;;;;;;;;;;;18.50;59.50;;;;;;5029776;28;42996;-77
2021/12/31 03:23:04;;;;;;;;;;;18.50;59.50;;;;;;5035074;28;43038;-76
2021/12/31 03:25:29;;;;;;;;;;;18.50;59.60;;;;;;5039484;28;42952;-76
2021/12/31 03:27:55;;;;;;;;;;;18.50;59.90;;;;;;5040915;28;42834;-75
2021/12/31 03:30:20;;;;;;;;;;;18.50;59.90;;;;;;5028547;28;42907;-75
2021/12/31 03:32:46;;;;;;;;;;;18.50;59.90;;;;;;5027758;28;42921;-76
2021/12/31 03:35:12;;;;;;;;;;;18.50;59.90;;;;;;5044706;28;42957;-76
2021/12/31 03:37:38;;;;;;;;;;;18.50;60.00;;;;;;5027902;28;43176;-75
2021/12/31 03:40:04;;;;;;;;;;;18.50;60.00;;;;;;5025916;28;43254;-76
2021/12/31 03:42:31;;;;;;;;;;;18.50;60.20;;;;;;5046806;28;42949;-75
2021/12/31 03:44:57;;;;;;;;;;;18.50;60.20;;;;;;5039345;28;42898;-76
2021/12/31 03:47:22;;;;;;;;;;;18.50;60.20;;;;;;5028129;28;42941;-77
2021/12/31 03:49:48;;;;;;;;;;;18.50;60.20;;;;;;5044131;28;42881;-76
2021/12/31 03:52:13;;;;;;;;;;;18.50;60.20;;;;;;5031395;28;42804;-76
2021/12/31 03:54:39;;;;;;;;;;;18.50;60.20;;;;;;5030549;28;43452;-78
2021/12/31 03:57:04;;;;;;;;;;;18.40;60.30;;;;;;5033166;28;42971;-76
2021/12/31 03:59:30;;;;;;;;;;;18.50;60.40;;;;;;5028859;28;43038;-76
2021/12/31 04:01:55;;;;;;;;;;;18.50;60.50;;;;;;5034393;28;42964;-76
2021/12/31 04:04:21;;;;;;;;;;;18.50;60.50;;;;;;5028019;28;43252;-76
2021/12/31 04:06:46;;;;;;;;;;;18.50;60.70;;;;;;5027883;28;42886;-76
2021/12/31 04:09:12;;;;;;;;;;;18.50;60.60;;;;;;5027907;28;42787;-74
2021/12/31 04:11:37;;;;;;;;;;;18.50;60.70;;;;;;5039876;28;42977;-76
2021/12/31 04:14:03;;;;;;;;;;;18.40;60.60;;;;;;5046901;28;42994;-75
2021/12/31 04:16:30;;;;;;;;;;;18.40;60.70;;;;;;5046661;28;42844;-76
2021/12/31 04:18:56;;;;;;;;;;;18.40;60.80;;;;;;5047490;28;42937;-77
2021/12/31 04:21:23;;;;;;;;;;;18.40;61.30;;;;;;5035096;28;42889;-76
2021/12/31 04:24:13;;;;;;;;;;;18.40;60.90;;;;;;5044005;28;44492;-76
2021/12/31 04:26:39;;;;;;;;;;;18.40;60.80;;;;;;5032050;28;42946;-75
2021/12/31 04:29:05;;;;;;;;;;;18.40;61.00;;;;;;5032989;28;43448;-76
2021/12/31 04:31:30;;;;;;;;;;;18.40;61.00;;;;;;5029983;28;42922;-76
2021/12/31 04:33:56;;;;;;;;;;;18.40;61.00;;;;;;5035795;28;43087;-76
2021/12/31 04:36:21;;;;;;;;;;;18.40;61.10;;;;;;5044168;28;42903;-76
2021/12/31 04:38:47;;;;;;;;;;;18.40;61.00;;;;;;5032467;28;42905;-76
2021/12/31 04:41:12;;;;;;;;;;;18.40;61.20;;;;;;5043665;28;42933;-76
2021/12/31 04:43:38;;;;;;;;;;;18.40;61.10;;;;;;5032587;28;42995;-76
2021/12/31 04:46:03;;;;;;;;;;;18.40;61.10;;;;;;5046404;28;42979;-76
2021/12/31 04:48:29;;;;;;;;;;;18.40;61.20;;;;;;5046206;28;42996;-76
2021/12/31 04:50:54;;;;;;;;;;;18.40;61.20;;;;;;5033434;28;43067;-76
2021/12/31 04:53:20;;;;;;;;;;;18.40;61.30;;;;;;5026638;28;43015;-75
2021/12/31 04:55:46;;;;;;;;;;;18.40;61.40;;;;;;5039958;28;42913;-76
2021/12/31 04:58:11;;;;;;;;;;;18.40;61.40;;;;;;5028094;28;42901;-75
2021/12/31 05:00:37;;;;;;;;;;;18.40;61.40;;;;;;5026419;28;42941;-75
2021/12/31 05:03:06;;;;;;;;;;;18.40;61.40;;;;;;5041866;28;43100;-75
2021/12/31 05:05:31;;;;;;;;;;;18.40;61.50;;;;;;5026938;28;43097;-75
2021/12/31 05:07:57;;;;;;;;;;;18.40;61.50;;;;;;5028441;28;43577;-76
2021/12/31 05:10:22;;;;;;;;;;;18.40;61.50;;;;;;5033409;28;42954;-75
2021/12/31 05:12:52;;;;;;;;;;;18.30;61.50;;;;;;5033719;28;42897;-76
2021/12/31 05:15:25;;;;;;;;;;;18.40;61.50;;;;;;5034236;28;42778;-76
2021/12/31 05:17:50;;;;;;;;;;;18.40;61.50;;;;;;5029855;28;42919;-76
2021/12/31 05:20:16;;;;;;;;;;;18.40;61.60;;;;;;5029302;28;42845;-76
2021/12/31 05:22:41;;;;;;;;;;;18.30;61.50;;;;;;5035014;28;43664;-77
2021/12/31 05:25:07;;;;;;;;;;;18.30;61.50;;;;;;5032071;28;43030;-78
2021/12/31 05:27:33;;;;;;;;;;;18.30;61.50;;;;;;5045230;28;42912;-77
2021/12/31 05:29:59;;;;;;;;;;;18.30;61.60;;;;;;5049903;28;42814;-77
2021/12/31 05:32:25;;;;;;;;;;;18.30;61.70;;;;;;5044730;28;43676;-77
2021/12/31 05:34:50;;;;;;;;;;;18.30;61.80;;;;;;5044891;28;42957;-75
2021/12/31 05:37:16;;;;;;;;;;;18.40;61.80;;;;;;5044693;28;43382;-74
2021/12/31 05:39:43;;;;;;;;;;;18.30;61.70;;;;;;5026590;28;42985;-75
2021/12/31 05:42:08;;;;;;;;;;;18.40;61.80;;;;;;5044150;28;42886;-75
2021/12/31 05:44:34;;;;;;;;;;;18.30;61.80;;;;;;5045323;28;42927;-75
2021/12/31 05:46:59;;;;;;;;;;;18.30;61.80;;;;;;5045281;28;43625;-74
2021/12/31 05:49:25;;;;;;;;;;;18.30;61.70;;;;;;5045680;28;43047;-74
2021/12/31 05:51:50;;;;;;;;;;;18.30;61.80;;;;;;5045255;28;43438;-77
2021/12/31 05:54:16;;;;;;;;;;;18.30;61.70;;;;;;5045569;28;42909;-75
2021/12/31 05:56:41;;;;;;;;;;;18.30;61.80;;;;;;5044749;28;42908;-75
2021/12/31 05:59:07;;;;;;;;;;;18.30;61.80;;;;;;5044820;28;42965;-75
2021/12/31 06:01:32;;;;;;;;;;;18.30;61.70;;;;;;5044862;28;43549;-75
2021/12/31 06:03:58;;;;;;;;;;;18.30;61.70;;;;;;5044796;28;43146;-74
2021/12/31 06:06:23;;;;;;;;;;;18.30;61.70;;;;;;5044694;28;43447;-75
2021/12/31 06:08:49;;;;;;;;;;;18.30;61.80;;;;;;5051430;28;43071;-75
2021/12/31 06:11:14;;;;;;;;;;;18.30;61.70;;;;;;5027301;28;42889;-75
2021/12/31 06:13:40;;;;;;;;;;;18.30;61.70;;;;;;5045589;28;42937;-77
2021/12/31 06:16:06;;;;;;;;;;;18.30;61.70;;;;;;5032731;28;43594;-77
2021/12/31 06:18:31;;;;;;;;;;;18.30;61.70;;;;;;5043658;28;43028;-76
2021/12/31 06:20:57;;;;;;;;;;;18.30;61.70;;;;;;5030517;28;43452;-76
2021/12/31 06:23:22;;;;;;;;;;;18.30;61.70;;;;;;5035503;28;43107;-76
2021/12/31 06:25:48;;;;;;;;;;;18.30;61.70;;;;;;5039805;28;43011;-78
2021/12/31 06:28:13;;;;;;;;;;;18.30;61.70;;;;;;5056868;28;42976;-78
2021/12/31 06:30:39;;;;;;;;;;;18.30;61.70;;;;;;5046340;28;42971;-74
2021/12/31 06:33:05;;;;;;;;;;;18.30;61.80;;;;;;5047452;28;43035;-73
2021/12/31 06:35:30;;;;;;;;;;;18.30;61.70;;;;;;5035039;28;43416;-73
2021/12/31 06:37:58;;;;;;;;;;;18.30;61.60;;;;;;5047212;28;42958;-75
2021/12/31 06:40:23;;;;;;;;;;;18.30;61.60;;;;;;5045968;28;43030;-75
2021/12/31 06:42:49;;;;;;;;;;;18.30;61.60;;;;;;5047507;28;42948;-74
2021/12/31 06:45:15;;;;;;;;;;;18.20;61.60;;;;;;5058571;28;43688;-78
2021/12/31 06:47:40;;;;;;;;;;;18.30;61.60;;;;;;5067216;28;42885;-75
2021/12/31 06:50:06;;;;;;;;;;;18.30;61.60;;;;;;5067226;28;43769;-77
2021/12/31 06:52:38;;;;;;;;;;;18.30;61.70;;;;;;5066959;28;42940;-78
2021/12/31 06:55:04;;;;;;;;;;;18.30;61.60;;;;;;5062835;28;43570;-77
2021/12/31 06:57:30;;;;;;;;;;;18.20;61.50;;;;;;5058213;28;43062;-78
2021/12/31 06:59:55;;;;;;;;;;;18.20;61.60;;;;;;5057831;28;43607;-76
2021/12/31 07:02:21;;;;;;;;;;;18.20;61.60;;;;;;5053092;28;42889;-78
2021/12/31 07:04:46;;;;;;;;;;;18.20;61.50;;;;;;5047845;28;42924;-76
2021/12/31 07:07:13;;;;;;;;;;;18.20;61.60;;;;;;5047621;28;42951;-77
2021/12/31 07:09:39;;;;;;;;;;;18.20;61.50;;;;;;5047909;28;43395;-78
2021/12/31 07:12:05;;;;;;;;;;;18.20;61.50;;;;;;5047835;28;42830;-78
2021/12/31 07:14:30;;;;;;;;;;;18.20;61.60;;;;;;5048135;28;43831;-76
2021/12/31 07:16:56;;;;;;;;;;;18.20;61.50;;;;;;5047621;28;42808;-78
2021/12/31 07:19:21;;;;;;;;;;;18.20;61.50;;;;;;5047594;28;42969;-78
2021/12/31 07:21:47;;;;;;;;;;;18.20;61.50;;;;;;5047908;28;42905;-74
2021/12/31 07:24:12;;;;;;;;;;;18.20;61.60;;;;;;5049990;28;42888;-77
2021/12/31 07:26:38;;;;;;;;;;;18.20;61.50;;;;;;5057660;28;42943;-75
2021/12/31 07:29:03;;;;;;;;;;;18.20;61.50;;;;;;5065558;28;42904;-77
2021/12/31 07:31:29;;;;;;;;;;;18.30;61.60;;;;;;5068093;28;42938;-77
2021/12/31 07:33:54;;;;;;;;;;;18.20;61.50;;;;;;5050196;28;46011;-77
2021/12/31 07:36:20;;;;;;;;;;;18.20;61.40;;;;;;5067023;28;42938;-74
2021/12/31 07:38:57;;;;;;;;;;;18.00;61.30;;;;;;5060776;28;43455;-75
2021/12/31 07:41:23;;;;;;;;;;;18.20;61.40;;;;;;5035998;28;42989;-75
2021/12/31 07:43:49;;;;;;;;;;;18.20;62.40;;;;;;5047617;28;42945;-77
2021/12/31 07:46:17;;;;;;;;;;;18.20;61.40;;;;;;5036437;28;42988;-75
2021/12/31 07:48:42;;;;;;;;;;;18.20;61.40;;;;;;5050630;28;42917;-75
2021/12/31 07:51:08;;;;;;;;;;;18.20;61.40;;;;;;5049534;28;42774;-74
2021/12/31 07:53:33;;;;;;;;;;;18.20;61.40;;;;;;5042319;28;42964;-76
2021/12/31 07:55:59;;;;;;;;;;;18.20;61.30;;;;;;5024906;28;42947;-76
2021/12/31 07:58:24;;;;;;;;;;;18.10;61.30;;;;;;5025940;28;43559;-75
2021/12/31 08:00:50;;;;;;;;;;;18.10;61.20;;;;;;5025690;28;43005;-76
2021/12/31 08:03:16;;;;;;;;;;;18.10;61.20;;;;;;5025718;28;43023;-76
2021/12/31 08:05:41;;;;;;;;;;;18.10;61.00;;;;;;5025868;28;42914;-76
2021/12/31 08:08:07;;;;;;;;;;;18.10;61.10;;;;;;5025982;28;43250;-77
2021/12/31 08:10:33;;;;;;;;;;;18.10;61.00;;;;;;5052495;28;44037;-76
2021/12/31 08:13:01;;;;;;;;;;;18.10;61.00;;;;;;5050778;28;43364;-76
2021/12/31 08:15:27;;;;;;;;;;;18.10;61.00;;;;;;5055166;28;42892;-76
2021/12/31 08:17:54;;;;;;;;;;;18.10;61.00;;;;;;5051041;28;43463;-76
2021/12/31 08:20:20;;;;;;;;;;;18.10;60.80;;;;;;5043803;28;43233;-76
2021/12/31 08:22:46;;;;;;;;;;;18.10;60.80;;;;;;5054684;28;43392;-77
2021/12/31 08:25:11;;;;;;;;;;;18.10;60.30;;;;;;5045399;28;43329;-76
2021/12/31 08:27:37;;;;;;;;;;;18.10;60.50;;;;;;5057441;28;42919;-76
2021/12/31 08:30:03;;;;;;;;;;;18.10;60.60;;;;;;5055148;28;42910;-75
2021/12/31 08:32:28;;;;;;;;;;;18.10;60.50;;;;;;5050129;28;43035;-74
2021/12/31 08:34:54;;;;;;;;;;;18.10;60.10;;;;;;5052542;28;43203;-75
2021/12/31 08:37:19;;;;;;;;;;;18.00;59.80;;;;;;5051557;28;43719;-74
2021/12/31 08:39:45;;;;;;;;;;;18.00;59.80;;;;;;5051764;28;43143;-75
2021/12/31 08:42:11;;;;;;;;;;;18.00;59.60;;;;;;5051589;28;43531;-76
2021/12/31 08:44:36;;;;;;;;;;;18.00;59.80;;;;;;5046473;28;43034;-76
2021/12/31 08:47:02;;;;;;;;;;;18.00;59.60;;;;;;5044312;28;43064;-75
2021/12/31 08:49:27;;;;;;;;;;;18.00;59.50;;;;;;5043259;28;43050;-74
2021/12/31 08:51:53;;;;;;;;;;;18.00;59.20;;;;;;5048789;28;43387;-75
2021/12/31 08:54:20;;;;;;;;;;;17.90;58.90;;;;;;5063294;28;43109;-74
2021/12/31 08:56:46;;;;;;;;;;;17.90;59.20;;;;;;5051640;28;43399;-76
2021/12/31 08:59:12;;;;;;;;;;;17.90;58.70;;;;;;5051222;28;43019;-75
2021/12/31 09:01:38;;;;;;;;;;;17.90;58.40;;;;;;5052338;28;43000;-76
2021/12/31 09:04:04;;;;;;;;;;;17.80;58.60;;;;;;5052877;28;43048;-75
2021/12/31 09:06:30;;;;;;;;;;;17.90;59.10;;;;;;5053128;28;43390;-75
2021/12/31 09:08:55;;;;;;;;;;;17.80;58.10;;;;;;5051685;28;43189;-74
2021/12/31 09:11:21;;;;;;;;;;;17.80;59.00;;;;;;5054021;28;43270;-75
2021/12/31 09:13:47;;;;;;;;;;;17.80;58.30;;;;;;5054315;28;43328;-74
2021/12/31 09:16:13;;;;;;;;;;;17.80;58.20;;;;;;5052827;28;44059;-75
2021/12/31 09:18:38;;;;;;;;;;;17.80;58.20;;;;;;5053526;28;42983;-75
2021/12/31 09:21:04;;;;;;;;;;;17.80;58.40;;;;;;5051053;28;43739;-75
2021/12/31 09:23:30;;;;;;;;;;;17.80;58.40;;;;;;5053947;28;43061;-75
2021/12/31 09:25:57;;;;;;;;;;;17.80;58.10;;;;;;5050766;28;43304;-76
2021/12/31 09:28:23;;;;;;;;;;;17.80;58.60;;;;;;5050501;28;43939;-75
2021/12/31 09:30:48;;;;;;;;;;;17.80;57.90;;;;;;5044904;28;43131;-75
2021/12/31 09:33:14;;;;;;;;;;;17.80;57.70;;;;;;5044798;28;42916;-74
2021/12/31 09:35:41;;;;;;;;;;;17.80;57.70;;;;;;5044820;28;43555;-74
2021/12/31 09:38:09;;;;;;;;;;;17.70;57.50;;;;;;5044910;28;42771;-75
2021/12/31 09:40:38;;;;;;;;;;;17.80;58.50;;;;;;5044775;28;43590;-74
2021/12/31 09:43:08;;;;;;;;;;;17.80;58.00;;;;;;5044841;28;43021;-77
2021/12/31 09:45:38;;;;;;;;;;;17.80;57.90;;;;;;5044526;28;44327;-75
2021/12/31 09:48:15;;;;;;;;;;;17.70;57.70;;;;;;5044434;28;42786;-73
2021/12/31 09:50:45;;;;;;;;;;;17.70;57.90;;;;;;5044411;28;42893;-73
2021/12/31 09:53:12;;;;;;;;;;;17.70;57.30;;;;;;5044700;28;42956;-75
2021/12/31 09:55:39;;;;;;;;;;;17.70;57.60;;;;;;5045314;28;42944;-81
2021/12/31 09:58:05;;;;;;;;;;;17.50;49.80;;;;;;5045306;28;43102;-74
2021/12/31 10:00:30;;;;;;;;;;;17.10;51.80;;;;;;5039874;28;43784;-73
2021/12/31 10:03:09;;;;;;;;;;;16.90;49.90;;;;;;5032601;28;43000;-73
2021/12/31 10:05:39;;;;;;;;;;;15.60;47.70;;;;;;5039518;28;42908;-81
2021/12/31 10:08:12;;;;;;;;;;;15.10;49.20;;;;;;5025173;28;43084;-80
2021/12/31 10:10:37;;;;;;;;;;;15.10;49.00;;;;;;5025901;28;42918;-81
2021/12/31 10:13:07;;;;;;;;;;;15.30;49.00;;;;;;5025282;28;43173;-79
2021/12/31 10:15:37;;;;;;;;;;;15.20;48.60;;;;;;5024610;28;42905;-78
2021/12/31 10:18:07;;;;;;;;;;;15.10;47.80;;;;;;5025801;28;43326;-76
2021/12/31 10:20:45;;;;;;;;;;;15.00;48.40;;;;;;5043627;28;42846;-77
2021/12/31 10:23:12;;;;;;;;;;;14.90;48.50;;;;;;5042931;28;43263;-76
2021/12/31 10:25:39;;;;;;;;;;;15.00;49.30;;;;;;5035702;28;43553;-75
2021/12/31 10:28:09;;;;;;;;;;;15.40;49.10;;;;;;5036322;28;42905;-75
2021/12/31 10:30:35;;;;;;;;;;;15.70;49.00;;;;;;5041012;28;43800;-78
2021/12/31 10:33:01;;;;;;;;;;;16.00;49.70;;;;;;5024784;28;43043;-76
2021/12/31 10:35:26;;;;;;;;;;;16.40;51.90;;;;;;5005825;28;44248;-75
2021/12/31 10:37:58;;;;;;;;;;;16.60;51.90;;;;;;5018275;28;42942;-75
2021/12/31 10:40:26;;;;;;;;;;;16.80;51.20;;;;;;5042709;28;42909;-75
2021/12/31 10:43:04;;;;;;;;;;;16.90;51.30;;;;;;5043711;28;42948;-76
2021/12/31 10:45:30;;;;;;;;;;;17.00;51.70;;;;;;5042952;28;42966;-77
2021/12/31 10:48:04;;;;;;;;;;;16.90;52.00;;;;;;5030813;28;42853;-76
2021/12/31 10:50:32;;;;;;;;;;;17.20;51.50;;;;;;5023781;28;43534;-76
2021/12/31 10:53:07;;;;;;;;;;;17.30;51.50;;;;;;5026000;28;43110;-77
2021/12/31 10:55:39;;;;;;;;;;;17.30;51.50;;;;;;5044561;28;44010;-76
2021/12/31 10:58:05;;;;;;;;;;;17.40;52.30;;;;;;5012727;28;43069;-75
2021/12/31 11:00:33;;;;;;;;;;;17.40;51.50;;;;;;5006459;28;44196;-76
2021/12/31 11:02:58;;;;;;;;;;;17.50;51.60;;;;;;5024473;28;43036;-76
2021/12/31 11:05:24;;;;;;;;;;;17.50;51.50;;;;;;5064028;28;43303;-76
2021/12/31 11:07:50;;;;;;;;;;;17.60;51.50;;;;;;5052660;28;42897;-75
2021/12/31 11:10:16;;;;;;;;;;;17.60;51.40;;;;;;5044209;28;43542;-76
2021/12/31 11:12:46;;;;;;;;;;;17.60;51.20;;;;;;5045912;28;43023;-76
2021/12/31 11:15:12;;;;;;;;;;;17.60;51.10;;;;;;5048265;28;43010;-75
2021/12/31 11:17:38;;;;;;;;;;;17.40;51.20;;;;;;5039218;28;42918;-77
2021/12/31 11:20:05;;;;;;;;;;;17.70;51.00;;;;;;5031774;28;42890;-77
2021/12/31 11:22:30;;;;;;;;;;;17.70;50.90;;;;;;5031754;28;42867;-75
2021/12/31 11:25:15;;;;;;;;;;;17.70;50.90;;;;;;5027516;28;42992;-76
2021/12/31 11:27:45;;;;;;;;;;;17.70;50.80;;;;;;5026871;28;43080;-74
2021/12/31 11:30:29;;;;;;;;;;;17.80;50.80;;;;;;5029878;28;43048;-74
2021/12/31 11:32:59;;;;;;;;;;;17.80;50.70;;;;;;5033732;28;43012;-75
2021/12/31 11:35:38;;;;;;;;;;;17.80;50.70;;;;;;5033867;28;45232;-75
2021/12/31 11:38:12;;;;;;;;;;;17.80;50.60;;;;;;5048872;28;42849;-75
2021/12/31 11:40:39;;;;;;;;;;;17.80;50.80;;;;;;5053921;28;42919;-75
2021/12/31 11:43:14;;;;;;;;;;;17.80;50.90;;;;;;5055857;28;43040;-75
2021/12/31 11:45:40;;;;;;;;;;;17.90;50.80;;;;;;5046814;28;42957;-75
2021/12/31 11:48:24;;;;;;;;;;;17.90;50.80;;;;;;5045187;28;43652;-74
2021/12/31 11:51:05;;;;;;;;;;;17.90;50.90;;;;;;5044521;28;44074;-75
2021/12/31 11:53:30;;;;;;;;;;;17.90;50.80;;;;;;5031527;28;43234;-73
2021/12/31 11:55:56;;;;;;;;;;;17.90;50.90;;;;;;5023214;28;43190;-74
2021/12/31 11:58:40;;;;;;;;;;;17.90;50.80;;;;;;5046765;28;42856;-74
2021/12/31 12:01:24;;;;;;;;;;;17.90;50.70;;;;;;5046705;28;42891;-75
2021/12/31 12:04:10;;;;;;;;;;;17.90;50.70;;;;;;5036696;28;42857;-75
2021/12/31 12:06:54;;;;;;;;;;;17.90;50.70;;;;;;5046566;28;43592;-75
2021/12/31 12:09:20;;;;;;;;;;;18.00;50.70;;;;;;5046634;28;42936;-74
2021/12/31 12:12:04;;;;;;;;;;;18.00;50.60;;;;;;5042494;28;43045;-74
2021/12/31 12:14:30;;;;;;;;;;;18.00;50.60;;;;;;5046291;28;43107;-75
2021/12/31 12:16:59;;;;;;;;;;;18.00;50.60;;;;;;5046037;28;43028;-75
2021/12/31 12:19:43;;;;;;;;;;;18.00;50.60;;;;;;5046424;28;42901;-75
2021/12/31 12:22:09;;;;;;;;;;;18.00;50.60;;;;;;5026627;28;43732;-74
2021/12/31 12:24:35;;;;;;;;;;;17.90;50.60;;;;;;5029316;28;42940;-75
2021/12/31 12:27:01;;;;;;;;;;;17.90;50.60;;;;;;5046275;28;43923;-75
2021/12/31 12:29:27;;;;;;;;;;;18.00;50.60;;;;;;5045241;28;42924;-74
2021/12/31 12:32:08;;;;;;;;;;;18.00;50.50;;;;;;5037165;28;43582;-74
2021/12/31 12:34:34;;;;;;;;;;;18.00;50.50;;;;;;5045515;28;43611;-75
2021/12/31 12:37:00;;;;;;;;;;;18.00;50.40;;;;;;5045388;28;43657;-75
2021/12/31 12:39:26;;;;;;;;;;;18.00;50.40;;;;;;5045411;28;43133;-72
2021/12/31 12:41:51;;;;;;;;;;;18.00;50.40;;;;;;5028241;28;42968;-73
2021/12/31 12:44:17;;;;;;;;;;;18.00;50.40;;;;;;5043466;28;43136;-74
2021/12/31 12:47:09;;;;;;;;;;;18.00;50.50;;;;;;5043673;28;43112;-74
2021/12/31 12:49:35;;;;;;;;;;;18.00;50.50;;;;;;5008718;28;42861;-74
2021/12/31 12:52:18;;;;;;;;;;;17.80;50.90;;;;;;5016466;28;43258;-74
2021/12/31 12:54:44;;;;;;;;;;;17.90;50.50;;;;;;5044261;28;42871;-74
2021/12/31 12:57:09;;;;;;;;;;;18.00;50.70;;;;;;5045232;28;43085;-74
2021/12/31 12:59:37;;;;;;;;;;;18.00;50.60;;;;;;5045244;28;42956;-75
2021/12/31 13:02:02;;;;;;;;;;;17.80;50.90;;;;;;5027583;28;43254;-74
2021/12/31 13:04:29;;;;;;;;;;;18.00;50.70;;;;;;5045019;28;42970;-74
2021/12/31 13:06:54;;;;;;;;;;;18.00;50.80;;;;;;5045583;28;43493;-74
2021/12/31 13:09:20;;;;;;;;;;;18.00;50.80;;;;;;5045661;28;42952;-74
2021/12/31 13:11:47;;;;;;;;;;;18.00;51.10;;;;;;5044805;28;43864;-75
2021/12/31 13:14:13;;;;;;;;;;;18.00;51.40;;;;;;5026485;28;43072;-74
2021/12/31 13:16:40;;;;;;;;;;;18.00;51.30;;;;;;5041378;28;42984;-74
2021/12/31 13:19:08;;;;;;;;;;;21.30;53.40;;;;;;5045593;28;42885;-74
2021/12/31 13:21:35;;;;;;;;;;;18.00;51.50;;;;;;5044592;28;42856;-74
2021/12/31 13:24:01;;;;;;;;;;;18.00;51.90;;;;;;5036622;28;42877;-74
2021/12/31 13:26:28;;;;;;;;;;;18.00;51.90;;;;;;5026766;28;44245;-74
2021/12/31 13:28:57;;;;;;;;;;;18.00;52.00;;;;;;5042032;28;43388;-74
2021/12/31 13:31:49;;;;;;;;;;;17.90;52.20;;;;;;5019096;28;45475;-74
2021/12/31 13:34:16;;;;;;;;;;;18.10;52.80;;;;;;5060600;28;42877;-74
2021/12/31 13:36:49;;;;;;;;;;;17.80;53.30;;;;;;5038449;28;45321;-74
2021/12/31 13:39:38;;;;;;;;;;;18.10;53.20;;;;;;5031414;28;43013;-75
2021/12/31 13:42:08;;;;;;;;;;;18.20;53.20;;;;;;5025090;28;43727;-74
2021/12/31 13:44:39;;;;;;;;;;;18.20;53.50;;;;;;5025151;28;42892;-74
2021/12/31 13:47:18;;;;;;;;;;;18.20;53.60;;;;;;5024910;28;43495;-74
2021/12/31 13:49:47;;;;;;;;;;;18.10;52.50;;;;;;5025327;28;42922;-74
2021/12/31 13:52:21;;;;;;;;;;;18.10;53.30;;;;;;5024939;28;43067;-75
2021/12/31 13:54:47;;;;;;;;;;;18.10;52.60;;;;;;5025519;28;42780;-74
2021/12/31 13:57:24;;;;;;;;;;;18.10;52.90;;;;;;5024990;28;43666;-75
2021/12/31 13:59:50;;;;;;;;;;;18.10;52.90;;;;;;5024491;28;43028;-74
2021/12/31 14:02:29;;;;;;;;;;;18.00;52.10;;;;;;5022829;28;42987;-74
2021/12/31 14:04:54;;;;;;;;;;;18.00;52.50;;;;;;5025326;28;43114;-72
2021/12/31 14:07:30;;;;;;;;;;;18.00;52.10;;;;;;5042136;28;43903;-74
2021/12/31 14:09:57;;;;;;;;;;;18.00;51.90;;;;;;5042463;28;43050;-74
2021/12/31 14:12:22;;;;;;;;;;;18.00;52.00;;;;;;5041426;28;43004;-74
2021/12/31 14:14:48;;;;;;;;;;;18.00;52.00;;;;;;5033568;28;42842;-74
2021/12/31 14:17:14;;;;;;;;;;;18.00;52.50;;;;;;5021763;28;44308;-73
2021/12/31 14:19:39;;;;;;;;;;;18.00;53.10;;;;;;5024822;28;43013;-73
2021/12/31 14:22:09;;;;;;;;;;;18.00;51.80;;;;;;5043619;28;42849;-74